createdAt,value
2022-12-31T00:05:14.805Z,3.19
2022-12-31T00:15:16.545Z,3.12
2022-12-31T00:25:18.462Z,3.06
2022-12-31T00:35:20.303Z,3.08
2022-12-31T00:45:21.996Z,3.09
2022-12-31T00:55:23.606Z,3.14
2022-12-31T01:05:30.804Z,3.23
2022-12-31T01:15:37.090Z,3.20
2022-12-31T01:25:41.928Z,3.12
2022-12-31T01:35:43.576Z,3.18
2022-12-31T01:45:48.877Z,3.23
2022-12-31T01:55:57.992Z,3.27
2022-12-31T02:06:16.241Z,3.30
2022-12-31T02:16:47.142Z,3.47
2022-12-31T02:27:10.254Z,3.53
2022-12-31T02:37:14.669Z,3.52
2022-12-31T02:47:38.187Z,3.56
2022-12-31T02:57:46.874Z,3.62
2022-12-31T03:07:49.159Z,3.44
2022-12-31T03:17:55.787Z,3.54
2022-12-31T03:27:57.709Z,3.52
2022-12-31T03:37:59.738Z,3.51
2022-12-31T03:48:02.751Z,3.58
2022-12-31T03:58:04.624Z,3.58
2022-12-31T04:08:06.299Z,3.55
2022-12-31T04:18:13.789Z,3.65
2022-12-31T04:28:15.459Z,3.61
2022-12-31T04:38:17.262Z,3.69
2022-12-31T04:48:21.652Z,3.77
2022-12-31T04:58:23.822Z,3.78
2022-12-31T05:08:25.552Z,3.81
2022-12-31T05:18:27.573Z,3.83
2022-12-31T05:28:29.728Z,3.74
2022-12-31T05:38:31.862Z,3.74
2022-12-31T05:48:34.125Z,3.74
2022-12-31T05:58:35.740Z,3.67
2022-12-31T06:08:37.763Z,3.65
2022-12-31T06:18:39.503Z,3.66
2022-12-31T06:28:41.449Z,3.58
2022-12-31T06:38:46.478Z,3.74
2022-12-31T06:48:48.189Z,3.77
2022-12-31T06:58:51.150Z,3.80
2022-12-31T07:09:08.909Z,3.70
2022-12-31T07:19:35.745Z,3.83
2022-12-31T07:29:43.297Z,3.96
2022-12-31T07:39:51.970Z,3.95
2022-12-31T07:49:56.870Z,4.01
2022-12-31T08:00:20.767Z,4.21
2022-12-31T08:10:39.445Z,3.96
2022-12-31T08:21:35.150Z,5.31
2022-12-31T08:32:06.732Z,5.18
2022-12-31T08:42:20.951Z,5.70
2022-12-31T08:52:32.909Z,5.40
2022-12-31T09:02:52.298Z,5.80
2022-12-31T09:13:11.583Z,6.25
2022-12-31T09:23:13.760Z,6.40
2022-12-31T09:33:26.328Z,6.06
2022-12-31T09:44:01.131Z,5.72
2022-12-31T09:54:08.100Z,5.77
2022-12-31T10:04:47.145Z,6.30
2022-12-31T10:15:12.126Z,6.67
2022-12-31T10:25:39.687Z,6.37
2022-12-31T10:35:54.717Z,6.82
2022-12-31T10:46:30.310Z,6.42
2022-12-31T10:56:58.272Z,6.38
2022-12-31T11:07:29.049Z,6.43
2022-12-31T11:17:45.216Z,6.48
2022-12-31T11:28:20.701Z,6.26
2022-12-31T11:38:30.493Z,6.35
2022-12-31T11:48:36.848Z,6.72
2022-12-31T11:58:42.127Z,6.84
2022-12-31T12:08:44.546Z,7.10
2022-12-31T12:18:51.403Z,7.23
2022-12-31T12:28:53.087Z,7.42
2022-12-31T12:39:06.093Z,7.68
2022-12-31T12:49:18.486Z,7.58
2022-12-31T12:59:51.180Z,7.70
2022-12-31T13:10:32.749Z,7.47
2022-12-31T13:20:45.718Z,7.43
2022-12-31T13:30:53.610Z,7.55
2022-12-31T13:41:04.335Z,7.59
2022-12-31T13:51:44.858Z,7.46
2022-12-31T14:01:56.649Z,7.88
2022-12-31T14:12:14.105Z,7.67
2022-12-31T14:22:24.823Z,7.53
2022-12-31T14:33:04.906Z,7.41
2022-12-31T14:43:21.873Z,7.27
2022-12-31T14:53:25.841Z,7.12
2022-12-31T15:03:45.079Z,6.96
2022-12-31T15:14:03.014Z,6.83
2022-12-31T15:24:34.545Z,6.78
2022-12-31T15:34:37.253Z,6.90
2022-12-31T15:44:48.360Z,6.93
2022-12-31T15:54:51.653Z,7.02
2022-12-31T16:04:55.499Z,6.94
2022-12-31T16:15:05.133Z,6.99
2022-12-31T16:25:32.669Z,6.88
2022-12-31T16:35:37.331Z,6.70
2022-12-31T16:45:39.129Z,6.63
2022-12-31T16:55:41.257Z,6.43
2022-12-31T17:05:58.871Z,6.22
2022-12-31T17:16:02.044Z,6.20
2022-12-31T17:26:11.203Z,6.07
2022-12-31T17:36:21.127Z,6.25
2022-12-31T17:46:26.589Z,6.25
2022-12-31T17:56:28.517Z,6.10
2022-12-31T18:06:30.362Z,5.97
2022-12-31T18:16:32.032Z,5.81
2022-12-31T18:26:34.675Z,5.70
2022-12-31T18:36:36.455Z,5.58
2022-12-31T18:46:38.130Z,5.51
2022-12-31T18:56:46.344Z,5.69
2022-12-31T19:06:49.788Z,5.74
2022-12-31T19:16:55.259Z,5.65
2022-12-31T19:26:57.269Z,5.58
2022-12-31T19:36:59.303Z,5.36
2022-12-31T19:47:03.297Z,5.32
2022-12-31T19:57:05.016Z,5.09
2022-12-31T20:07:06.821Z,4.78
2022-12-31T20:17:08.722Z,4.74
2022-12-31T20:27:18.134Z,4.63
2022-12-31T20:37:20.241Z,4.48
2022-12-31T20:47:22.176Z,4.57
2022-12-31T20:57:26.566Z,4.37
2022-12-31T21:07:30.443Z,4.02
2022-12-31T21:17:38.316Z,4.04
2022-12-31T21:27:40.044Z,3.98
2022-12-31T21:37:59.009Z,4.05
2022-12-31T21:48:21.241Z,4.04
2022-12-31T21:58:27.707Z,4.19
2022-12-31T22:08:31.317Z,4.07
2022-12-31T22:18:38.795Z,3.97
2022-12-31T22:28:43.371Z,3.80
2022-12-31T22:38:46.992Z,3.52
2022-12-31T22:48:50.063Z,3.42
2022-12-31T22:58:51.642Z,3.37
2022-12-31T23:09:11.916Z,3.46
2022-12-31T23:19:35.588Z,3.08
2022-12-31T23:29:46.634Z,3.06
2022-12-31T23:39:49.240Z,3.00
2022-12-31T23:49:50.859Z,2.87
2022-12-31T23:59:52.595Z,2.84
